NOTE: This page is experimental. Bug reports to carter.barry@gmail.com. Query language is SQLite3.

Prepend rss. to the URL for an RSS feed, csv. to the URL for CSV output.

QUERY: SELECT station_id AS "Code", observation_time AS "Time (GMT)", ROUND(altim_in_hg,2) AS "Pressure (inches)", ROUND(temp_c*1.8+32, 1) AS "Temp. (F)", ROUND(wind_speed_kt*1.15077945) AS "Wind (mph)", (CASE WHEN wind_gust_kt THEN ROUND(wind_gust_kt*1.15077945) ELSE "NA" END) AS "Gust (mph)", DATETIME(observation_time,'-7 hours') AS "Time (MST)" FROM metar WHERE station_id='KABQ' ORDER BY observation_time DESC

To edit query (or if query above is munged), see textbox at bottom of page

Empty result may indicate error: I'm not sure why my error checking code isn't working.

Source code

Code Time (GMT) Pressure (inches) Temp. (F) Wind (mph) Gust (mph) Time (MST)
KABQ 2019-10-19T02:52:00Z 29.93 57.9 7.0 NA 2019-10-18 19:52:00
KABQ 2019-10-19T01:52:00Z 29.89 61.0 10.0 NA 2019-10-18 18:52:00
KABQ 2019-10-19T00:52:00Z 29.87 63.0 14.0 NA 2019-10-18 17:52:00
KABQ 2019-10-18T23:52:00Z 29.85 64.9 20.0 NA 2019-10-18 16:52:00
KABQ 2019-10-18T22:52:00Z 29.82 69.1 23.0 33.0 2019-10-18 15:52:00
KABQ 2019-10-18T22:22:00Z 29.82 69.1 22.0 36.0 2019-10-18 15:22:00
KABQ 2019-10-18T21:52:00Z 29.8 71.1 22.0 28.0 2019-10-18 14:52:00
KABQ 2019-10-18T21:32:00Z 29.8 69.1 18.0 26.0 2019-10-18 14:32:00
KABQ 2019-10-18T20:52:00Z 29.79 66.9 14.0 22.0 2019-10-18 13:52:00
KABQ 2019-10-18T19:52:00Z 29.83 64.9 21.0 NA 2019-10-18 12:52:00
KABQ 2019-10-18T18:52:00Z 29.85 64.9 22.0 29.0 2019-10-18 11:52:00
KABQ 2019-10-18T17:52:00Z 29.88 66.9 22.0 29.0 2019-10-18 10:52:00
KABQ 2019-10-18T16:52:00Z 29.9 64.9 20.0 28.0 2019-10-18 09:52:00
KABQ 2019-10-18T15:52:00Z 29.91 59.0 7.0 NA 2019-10-18 08:52:00
KABQ 2019-10-18T14:52:00Z 29.89 54.0 0.0 NA 2019-10-18 07:52:00
KABQ 2019-10-18T13:52:00Z 29.86 52.0 0.0 NA 2019-10-18 06:52:00
KABQ 2019-10-18T12:52:00Z 29.85 51.1 6.0 NA 2019-10-18 05:52:00
KABQ 2019-10-18T11:52:00Z 29.84 53.1 6.0 NA 2019-10-18 04:52:00
KABQ 2019-10-18T10:52:00Z 29.83 53.1 5.0 NA 2019-10-18 03:52:00
KABQ 2019-10-18T09:52:00Z 29.82 51.1 6.0 NA 2019-10-18 02:52:00
KABQ 2019-10-18T08:52:00Z 29.83 55.9 3.0 NA 2019-10-18 01:52:00
KABQ 2019-10-18T07:52:00Z 29.84 59.0 3.0 NA 2019-10-18 00:52:00
KABQ 2019-10-18T06:52:00Z 29.83 59.0 13.0 NA 2019-10-17 23:52:00
KABQ 2019-10-18T05:52:00Z 29.84 62.1 15.0 NA 2019-10-17 22:52:00
KABQ 2019-10-18T04:52:00Z 29.85 62.1 16.0 NA 2019-10-17 21:52:00
KABQ 2019-10-18T03:52:00Z 29.84 64.0 15.0 NA 2019-10-17 20:52:00

Enter query below (must start w/ SELECT):

Schema Raw SQLite3 db RSS feed for this query